sensor_id;sensor_type;location;lat;lon;timestamp;temperature;humidity
13436;DHT22;6790;49.520;8.504;2023-02-20T00:01:27;9.60;99.90
13436;DHT22;6790;49.520;8.504;2023-02-20T00:03:54;9.60;99.90
13436;DHT22;6790;49.520;8.504;2023-02-20T00:06:20;9.50;99.90
13436;DHT22;6790;49.520;8.504;2023-02-20T00:08:46;9.50;99.90
13436;DHT22;6790;49.520;8.504;2023-02-20T00:11:11;9.50;99.90
13436;DHT22;6790;49.520;8.504;2023-02-20T00:13:37;9.30;99.90
13436;DHT22;6790;49.520;8.504;2023-02-20T00:16:03;9.20;99.90
13436;DHT22;6790;49.520;8.504;2023-02-20T00:18:29;9.00;99.90
13436;DHT22;6790;49.520;8.504;2023-02-20T00:20:55;9.00;99.90
13436;DHT22;6790;49.520;8.504;2023-02-20T00:23:20;8.90;99.90
13436;DHT22;6790;49.520;8.504;2023-02-20T00:25:46;8.90;99.90
13436;DHT22;6790;49.520;8.504;2023-02-20T00:28:12;8.80;99.90
13436;DHT22;6790;49.520;8.504;2023-02-20T00:30:37;8.80;99.90
13436;DHT22;6790;49.520;8.504;2023-02-20T00:33:03;8.80;99.90
13436;DHT22;6790;49.520;8.504;2023-02-20T00:35:29;8.70;99.90
13436;DHT22;6790;49.520;8.504;2023-02-20T00:37:55;8.50;99.90
13436;DHT22;6790;49.520;8.504;2023-02-20T00:40:23;8.40;99.90
13436;DHT22;6790;49.520;8.504;2023-02-20T00:42:49;8.40;99.90
13436;DHT22;6790;49.520;8.504;2023-02-20T00:45:16;8.40;99.90
13436;DHT22;6790;49.520;8.504;2023-02-20T00:47:43;8.40;99.90
13436;DHT22;6790;49.520;8.504;2023-02-20T00:50:09;8.40;99.90
13436;DHT22;6790;49.520;8.504;2023-02-20T00:52:35;8.30;99.90
13436;DHT22;6790;49.520;8.504;2023-02-20T00:55:02;8.30;99.90
13436;DHT22;6790;49.520;8.504;2023-02-20T00:57:28;8.30;99.90
13436;DHT22;6790;49.520;8.504;2023-02-20T00:59:53;8.50;99.90
13436;DHT22;6790;49.520;8.504;2023-02-20T01:02:19;8.40;99.90
13436;DHT22;6790;49.520;8.504;2023-02-20T01:04:45;8.30;99.90
13436;DHT22;6790;49.520;8.504;2023-02-20T01:07:11;8.10;99.90
13436;DHT22;6790;49.520;8.504;2023-02-20T01:09:36;8.00;99.90
13436;DHT22;6790;49.520;8.504;2023-02-20T01:12:02;8.00;99.90
13436;DHT22;6790;49.520;8.504;2023-02-20T01:14:29;7.90;99.90
13436;DHT22;6790;49.520;8.504;2023-02-20T01:16:55;7.90;99.90
13436;DHT22;6790;49.520;8.504;2023-02-20T01:19:22;7.90;99.90
13436;DHT22;6790;49.520;8.504;2023-02-20T01:21:48;7.80;99.90
13436;DHT22;6790;49.520;8.504;2023-02-20T01:24:15;7.80;99.90
13436;DHT22;6790;49.520;8.504;2023-02-20T01:26:43;7.80;99.90
13436;DHT22;6790;49.520;8.504;2023-02-20T01:29:10;7.70;99.90
13436;DHT22;6790;49.520;8.504;2023-02-20T01:31:36;7.70;99.90
13436;DHT22;6790;49.520;8.504;2023-02-20T01:34:02;7.70;99.90
13436;DHT22;6790;49.520;8.504;2023-02-20T01:36:28;7.80;99.90
13436;DHT22;6790;49.520;8.504;2023-02-20T01:38:54;7.80;99.90
13436;DHT22;6790;49.520;8.504;2023-02-20T01:41:20;7.90;99.90
13436;DHT22;6790;49.520;8.504;2023-02-20T01:43:47;7.90;99.90
13436;DHT22;6790;49.520;8.504;2023-02-20T01:49:05;7.50;99.90
13436;DHT22;6790;49.520;8.504;2023-02-20T01:51:35;7.40;99.90
13436;DHT22;6790;49.520;8.504;2023-02-20T01:54:06;7.30;99.90
13436;DHT22;6790;49.520;8.504;2023-02-20T01:56:33;7.20;99.90
13436;DHT22;6790;49.520;8.504;2023-02-20T01:58:59;7.10;99.90
13436;DHT22;6790;49.520;8.504;2023-02-20T02:01:25;7.00;99.90
13436;DHT22;6790;49.520;8.504;2023-02-20T02:03:56;6.90;99.90
13436;DHT22;6790;49.520;8.504;2023-02-20T02:06:25;6.80;99.90
13436;DHT22;6790;49.520;8.504;2023-02-20T02:08:51;6.70;99.90
13436;DHT22;6790;49.520;8.504;2023-02-20T02:11:20;6.60;99.90
13436;DHT22;6790;49.520;8.504;2023-02-20T02:13:47;6.60;99.90
13436;DHT22;6790;49.520;8.504;2023-02-20T02:16:57;6.50;99.90
13436;DHT22;6790;49.520;8.504;2023-02-20T02:25:34;6.50;99.90
13436;DHT22;6790;49.520;8.504;2023-02-20T02:35:18;6.30;99.90
13436;DHT22;6790;49.520;8.504;2023-02-20T02:40:11;6.40;99.90
13436;DHT22;6790;49.520;8.504;2023-02-20T02:43:10;6.40;99.90
13436;DHT22;6790;49.520;8.504;2023-02-20T02:46:00;6.30;99.90
13436;DHT22;6790;49.520;8.504;2023-02-20T02:48:38;6.30;99.90
13436;DHT22;6790;49.520;8.504;2023-02-20T02:51:17;6.20;99.90
13436;DHT22;6790;49.520;8.504;2023-02-20T02:54:12;6.20;99.90
13436;DHT22;6790;49.520;8.504;2023-02-20T02:56:42;6.30;99.90
13436;DHT22;6790;49.520;8.504;2023-02-20T02:59:14;6.20;99.90
13436;DHT22;6790;49.520;8.504;2023-02-20T03:01:49;6.30;99.90
13436;DHT22;6790;49.520;8.504;2023-02-20T03:04:18;6.30;99.90
13436;DHT22;6790;49.520;8.504;2023-02-20T03:06:58;6.40;99.90
13436;DHT22;6790;49.520;8.504;2023-02-20T03:09:29;6.40;99.90
13436;DHT22;6790;49.520;8.504;2023-02-20T03:11:58;6.30;99.90
13436;DHT22;6790;49.520;8.504;2023-02-20T03:14:31;6.30;99.90
13436;DHT22;6790;49.520;8.504;2023-02-20T03:17:29;6.30;99.90
13436;DHT22;6790;49.520;8.504;2023-02-20T03:20:02;6.30;99.90
13436;DHT22;6790;49.520;8.504;2023-02-20T03:22:52;6.20;99.90
13436;DHT22;6790;49.520;8.504;2023-02-20T03:25:27;6.20;99.90
13436;DHT22;6790;49.520;8.504;2023-02-20T03:28:02;6.20;99.90
13436;DHT22;6790;49.520;8.504;2023-02-20T03:33:15;6.10;99.90
13436;DHT22;6790;49.520;8.504;2023-02-20T03:36:06;6.10;99.90
13436;DHT22;6790;49.520;8.504;2023-02-20T03:39:01;6.20;99.90
13436;DHT22;6790;49.520;8.504;2023-02-20T03:41:49;6.20;99.90
13436;DHT22;6790;49.520;8.504;2023-02-20T03:44:34;6.20;99.90
13436;DHT22;6790;49.520;8.504;2023-02-20T03:47:01;6.10;99.90
13436;DHT22;6790;49.520;8.504;2023-02-20T03:49:38;6.10;99.90
13436;DHT22;6790;49.520;8.504;2023-02-20T03:52:07;6.00;99.90
13436;DHT22;6790;49.520;8.504;2023-02-20T03:54:34;6.00;99.90
13436;DHT22;6790;49.520;8.504;2023-02-20T03:57:23;6.00;99.90
13436;DHT22;6790;49.520;8.504;2023-02-20T04:00:04;5.90;99.90
13436;DHT22;6790;49.520;8.504;2023-02-20T04:02:38;5.70;99.90
13436;DHT22;6790;49.520;8.504;2023-02-20T04:05:20;5.80;99.90
13436;DHT22;6790;49.520;8.504;2023-02-20T04:08:15;5.80;99.90
13436;DHT22;6790;49.520;8.504;2023-02-20T04:10:52;5.80;99.90
13436;DHT22;6790;49.520;8.504;2023-02-20T04:13:22;5.80;99.90
13436;DHT22;6790;49.520;8.504;2023-02-20T04:15:48;5.70;99.90
13436;DHT22;6790;49.520;8.504;2023-02-20T04:18:17;5.60;99.90
13436;DHT22;6790;49.520;8.504;2023-02-20T04:20:46;5.60;99.90
13436;DHT22;6790;49.520;8.504;2023-02-20T04:23:16;5.50;99.90
13436;DHT22;6790;49.520;8.504;2023-02-20T04:25:57;5.50;99.90
13436;DHT22;6790;49.520;8.504;2023-02-20T04:28:25;5.50;99.90
13436;DHT22;6790;49.520;8.504;2023-02-20T04:30:52;5.40;99.90
13436;DHT22;6790;49.520;8.504;2023-02-20T04:33:18;5.50;99.90
13436;DHT22;6790;49.520;8.504;2023-02-20T04:35:44;5.60;99.90
13436;DHT22;6790;49.520;8.504;2023-02-20T04:38:10;5.60;99.90
13436;DHT22;6790;49.520;8.504;2023-02-20T04:40:36;5.60;99.90
13436;DHT22;6790;49.520;8.504;2023-02-20T04:43:02;5.70;99.90
13436;DHT22;6790;49.520;8.504;2023-02-20T04:45:28;5.60;99.90
13436;DHT22;6790;49.520;8.504;2023-02-20T04:47:53;5.60;99.90
13436;DHT22;6790;49.520;8.504;2023-02-20T04:50:29;5.60;99.90
13436;DHT22;6790;49.520;8.504;2023-02-20T04:52:55;5.70;99.90
13436;DHT22;6790;49.520;8.504;2023-02-20T04:55:22;5.70;99.90
13436;DHT22;6790;49.520;8.504;2023-02-20T04:57:48;5.70;99.90
13436;DHT22;6790;49.520;8.504;2023-02-20T05:00:16;5.70;99.90
13436;DHT22;6790;49.520;8.504;2023-02-20T05:02:44;5.60;99.90
13436;DHT22;6790;49.520;8.504;2023-02-20T05:05:30;5.60;99.90
13436;DHT22;6790;49.520;8.504;2023-02-20T05:08:01;5.60;99.90
13436;DHT22;6790;49.520;8.504;2023-02-20T05:10:30;5.60;99.90
13436;DHT22;6790;49.520;8.504;2023-02-20T05:12:57;5.60;99.90
13436;DHT22;6790;49.520;8.504;2023-02-20T05:15:24;5.50;99.90
13436;DHT22;6790;49.520;8.504;2023-02-20T05:17:51;5.50;99.90
13436;DHT22;6790;49.520;8.504;2023-02-20T05:20:17;5.50;99.90
13436;DHT22;6790;49.520;8.504;2023-02-20T05:22:47;5.40;99.90
13436;DHT22;6790;49.520;8.504;2023-02-20T05:25:13;5.40;99.90
13436;DHT22;6790;49.520;8.504;2023-02-20T05:27:40;5.30;99.90
13436;DHT22;6790;49.520;8.504;2023-02-20T05:30:07;5.30;99.90
13436;DHT22;6790;49.520;8.504;2023-02-20T05:32:34;5.30;99.90
13436;DHT22;6790;49.520;8.504;2023-02-20T05:35:00;5.30;99.90
13436;DHT22;6790;49.520;8.504;2023-02-20T05:37:26;5.40;99.90
13436;DHT22;6790;49.520;8.504;2023-02-20T05:39:52;5.40;99.90
13436;DHT22;6790;49.520;8.504;2023-02-20T05:42:19;5.50;99.90
13436;DHT22;6790;49.520;8.504;2023-02-20T05:44:46;5.50;99.90
13436;DHT22;6790;49.520;8.504;2023-02-20T05:47:14;5.40;99.90
13436;DHT22;6790;49.520;8.504;2023-02-20T05:49:39;5.40;99.90
13436;DHT22;6790;49.520;8.504;2023-02-20T05:52:05;5.40;99.90
13436;DHT22;6790;49.520;8.504;2023-02-20T05:54:36;5.40;99.90
13436;DHT22;6790;49.520;8.504;2023-02-20T05:57:03;5.40;99.90
13436;DHT22;6790;49.520;8.504;2023-02-20T05:59:29;5.30;99.90
13436;DHT22;6790;49.520;8.504;2023-02-20T06:01:56;5.30;99.90
13436;DHT22;6790;49.520;8.504;2023-02-20T06:04:23;5.20;99.90
13436;DHT22;6790;49.520;8.504;2023-02-20T06:06:48;5.10;99.90
13436;DHT22;6790;49.520;8.504;2023-02-20T06:09:14;5.10;99.90
13436;DHT22;6790;49.520;8.504;2023-02-20T06:11:41;5.00;99.90
13436;DHT22;6790;49.520;8.504;2023-02-20T06:14:15;5.00;99.90
13436;DHT22;6790;49.520;8.504;2023-02-20T06:16:43;5.10;99.90
13436;DHT22;6790;49.520;8.504;2023-02-20T06:19:09;5.10;99.90
13436;DHT22;6790;49.520;8.504;2023-02-20T06:21:35;5.20;99.90
13436;DHT22;6790;49.520;8.504;2023-02-20T06:24:02;5.30;99.90
13436;DHT22;6790;49.520;8.504;2023-02-20T06:26:27;5.30;99.90
13436;DHT22;6790;49.520;8.504;2023-02-20T06:28:53;5.40;99.90
13436;DHT22;6790;49.520;8.504;2023-02-20T06:31:24;5.40;99.90
13436;DHT22;6790;49.520;8.504;2023-02-20T06:33:51;5.30;99.90
13436;DHT22;6790;49.520;8.504;2023-02-20T06:36:20;5.10;99.90
13436;DHT22;6790;49.520;8.504;2023-02-20T06:38:51;4.90;99.90
13436;DHT22;6790;49.520;8.504;2023-02-20T06:41:16;4.90;99.90
13436;DHT22;6790;49.520;8.504;2023-02-20T06:43:42;4.90;99.90
13436;DHT22;6790;49.520;8.504;2023-02-20T06:46:08;4.80;99.90
13436;DHT22;6790;49.520;8.504;2023-02-20T06:48:34;4.90;99.90
13436;DHT22;6790;49.520;8.504;2023-02-20T06:50:59;4.90;99.90
13436;DHT22;6790;49.520;8.504;2023-02-20T06:53:25;4.80;99.90
13436;DHT22;6790;49.520;8.504;2023-02-20T06:55:51;4.80;99.90
13436;DHT22;6790;49.520;8.504;2023-02-20T06:58:16;4.70;99.90
13436;DHT22;6790;49.520;8.504;2023-02-20T07:00:42;4.70;99.90
13436;DHT22;6790;49.520;8.504;2023-02-20T07:03:08;4.70;99.90
13436;DHT22;6790;49.520;8.504;2023-02-20T07:05:33;4.70;99.90
13436;DHT22;6790;49.520;8.504;2023-02-20T07:07:59;4.60;99.90
13436;DHT22;6790;49.520;8.504;2023-02-20T07:10:25;4.60;99.90
13436;DHT22;6790;49.520;8.504;2023-02-20T07:12:51;4.70;99.90
13436;DHT22;6790;49.520;8.504;2023-02-20T07:15:17;4.70;99.90
13436;DHT22;6790;49.520;8.504;2023-02-20T07:17:42;4.70;99.90
13436;DHT22;6790;49.520;8.504;2023-02-20T07:20:08;4.80;99.90
13436;DHT22;6790;49.520;8.504;2023-02-20T07:22:34;4.80;99.90
13436;DHT22;6790;49.520;8.504;2023-02-20T07:25:00;4.70;99.90
13436;DHT22;6790;49.520;8.504;2023-02-20T07:27:26;4.70;99.90
13436;DHT22;6790;49.520;8.504;2023-02-20T07:29:51;4.80;99.90
13436;DHT22;6790;49.520;8.504;2023-02-20T07:32:17;5.10;99.90
13436;DHT22;6790;49.520;8.504;2023-02-20T07:34:48;5.40;99.90
13436;DHT22;6790;49.520;8.504;2023-02-20T07:37:15;5.70;99.90
13436;DHT22;6790;49.520;8.504;2023-02-20T07:39:40;5.80;99.90
13436;DHT22;6790;49.520;8.504;2023-02-20T07:42:06;6.10;99.90
13436;DHT22;6790;49.520;8.504;2023-02-20T07:44:32;6.20;99.90
13436;DHT22;6790;49.520;8.504;2023-02-20T07:46:58;6.30;99.90
13436;DHT22;6790;49.520;8.504;2023-02-20T07:49:24;6.50;99.90
13436;DHT22;6790;49.520;8.504;2023-02-20T07:51:49;6.60;99.90
13436;DHT22;6790;49.520;8.504;2023-02-20T07:54:15;6.80;99.90
13436;DHT22;6790;49.520;8.504;2023-02-20T07:56:41;6.90;99.90
13436;DHT22;6790;49.520;8.504;2023-02-20T07:59:07;7.10;99.90
13436;DHT22;6790;49.520;8.504;2023-02-20T08:01:34;7.20;99.90
13436;DHT22;6790;49.520;8.504;2023-02-20T08:04:00;7.20;99.90
13436;DHT22;6790;49.520;8.504;2023-02-20T08:06:26;7.40;99.90
13436;DHT22;6790;49.520;8.504;2023-02-20T08:08:53;7.60;99.90
13436;DHT22;6790;49.520;8.504;2023-02-20T08:11:21;7.70;99.90
13436;DHT22;6790;49.520;8.504;2023-02-20T08:13:47;7.90;99.90
13436;DHT22;6790;49.520;8.504;2023-02-20T08:16:13;8.00;99.90
13436;DHT22;6790;49.520;8.504;2023-02-20T08:18:39;8.10;99.90
13436;DHT22;6790;49.520;8.504;2023-02-20T08:21:05;8.30;99.90
13436;DHT22;6790;49.520;8.504;2023-02-20T08:23:30;8.40;99.90
13436;DHT22;6790;49.520;8.504;2023-02-20T08:25:56;8.50;99.90
13436;DHT22;6790;49.520;8.504;2023-02-20T08:28:22;8.70;99.90
13436;DHT22;6790;49.520;8.504;2023-02-20T08:30:48;9.00;99.90
13436;DHT22;6790;49.520;8.504;2023-02-20T08:33:14;9.20;99.90
13436;DHT22;6790;49.520;8.504;2023-02-20T08:35:40;9.20;99.90
13436;DHT22;6790;49.520;8.504;2023-02-20T08:38:27;9.30;99.90
13436;DHT22;6790;49.520;8.504;2023-02-20T08:40:55;9.40;99.90
13436;DHT22;6790;49.520;8.504;2023-02-20T08:43:21;9.50;99.90
13436;DHT22;6790;49.520;8.504;2023-02-20T08:45:48;9.60;99.90
13436;DHT22;6790;49.520;8.504;2023-02-20T08:48:13;9.50;99.90
13436;DHT22;6790;49.520;8.504;2023-02-20T08:50:39;9.40;99.90
13436;DHT22;6790;49.520;8.504;2023-02-20T08:53:05;9.40;99.90
13436;DHT22;6790;49.520;8.504;2023-02-20T08:55:31;9.40;99.90
13436;DHT22;6790;49.520;8.504;2023-02-20T08:57:56;9.40;99.90
13436;DHT22;6790;49.520;8.504;2023-02-20T09:00:22;9.40;99.90
13436;DHT22;6790;49.520;8.504;2023-02-20T09:02:48;9.40;99.90
13436;DHT22;6790;49.520;8.504;2023-02-20T09:05:15;9.50;99.90
13436;DHT22;6790;49.520;8.504;2023-02-20T09:07:41;9.60;99.90
13436;DHT22;6790;49.520;8.504;2023-02-20T09:10:08;9.70;99.90
13436;DHT22;6790;49.520;8.504;2023-02-20T09:12:34;9.70;99.90
13436;DHT22;6790;49.520;8.504;2023-02-20T09:15:00;9.90;99.90
13436;DHT22;6790;49.520;8.504;2023-02-20T09:17:27;10.00;99.90
13436;DHT22;6790;49.520;8.504;2023-02-20T09:19:54;9.90;99.90
13436;DHT22;6790;49.520;8.504;2023-02-20T09:22:23;10.00;99.90
13436;DHT22;6790;49.520;8.504;2023-02-20T09:24:51;9.90;99.90
13436;DHT22;6790;49.520;8.504;2023-02-20T09:27:18;9.90;99.90
13436;DHT22;6790;49.520;8.504;2023-02-20T09:29:45;9.80;99.90
13436;DHT22;6790;49.520;8.504;2023-02-20T09:32:12;9.80;99.90
13436;DHT22;6790;49.520;8.504;2023-02-20T09:34:39;9.80;99.90
13436;DHT22;6790;49.520;8.504;2023-02-20T09:37:05;10.00;99.90
13436;DHT22;6790;49.520;8.504;2023-02-20T09:39:33;9.90;99.90
13436;DHT22;6790;49.520;8.504;2023-02-20T09:45:05;9.70;99.90
13436;DHT22;6790;49.520;8.504;2023-02-20T09:47:43;9.60;99.90
13436;DHT22;6790;49.520;8.504;2023-02-20T09:50:43;9.50;99.90
13436;DHT22;6790;49.520;8.504;2023-02-20T09:53:59;9.50;99.90
13436;DHT22;6790;49.520;8.504;2023-02-20T09:56:30;9.70;99.90
13436;DHT22;6790;49.520;8.504;2023-02-20T09:59:17;10.00;99.90
13436;DHT22;6790;49.520;8.504;2023-02-20T10:01:55;10.30;99.90
13436;DHT22;6790;49.520;8.504;2023-02-20T10:04:38;10.60;99.90
13436;DHT22;6790;49.520;8.504;2023-02-20T10:07:26;10.70;99.90
13436;DHT22;6790;49.520;8.504;2023-02-20T10:09:59;10.80;99.90
13436;DHT22;6790;49.520;8.504;2023-02-20T10:15:49;11.10;99.90
13436;DHT22;6790;49.520;8.504;2023-02-20T10:24:22;11.50;99.90
13436;DHT22;6790;49.520;8.504;2023-02-20T10:30:03;11.60;99.90
13436;DHT22;6790;49.520;8.504;2023-02-20T10:32:37;11.90;99.90
13436;DHT22;6790;49.520;8.504;2023-02-20T10:35:10;12.00;99.90
13436;DHT22;6790;49.520;8.504;2023-02-20T10:37:42;12.10;99.90
13436;DHT22;6790;49.520;8.504;2023-02-20T10:40:27;12.20;99.90
13436;DHT22;6790;49.520;8.504;2023-02-20T10:46:09;12.30;99.90
13436;DHT22;6790;49.520;8.504;2023-02-20T10:48:39;12.30;99.90
13436;DHT22;6790;49.520;8.504;2023-02-20T10:53:54;12.70;99.90
13436;DHT22;6790;49.520;8.504;2023-02-20T10:56:48;13.00;99.90
13436;DHT22;6790;49.520;8.504;2023-02-20T10:59:47;13.10;99.90
13436;DHT22;6790;49.520;8.504;2023-02-20T11:02:32;13.00;99.90
13436;DHT22;6790;49.520;8.504;2023-02-20T11:05:08;13.30;99.90
13436;DHT22;6790;49.520;8.504;2023-02-20T11:07:36;13.50;99.90
13436;DHT22;6790;49.520;8.504;2023-02-20T11:10:02;13.50;99.90
13436;DHT22;6790;49.520;8.504;2023-02-20T11:15:11;13.50;99.90
13436;DHT22;6790;49.520;8.504;2023-02-20T11:17:39;13.50;99.90
13436;DHT22;6790;49.520;8.504;2023-02-20T11:22:58;13.70;99.90
13436;DHT22;6790;49.520;8.504;2023-02-20T11:25:31;13.90;99.90
13436;DHT22;6790;49.520;8.504;2023-02-20T11:30:41;13.90;99.90
13436;DHT22;6790;49.520;8.504;2023-02-20T11:33:25;13.90;99.90
13436;DHT22;6790;49.520;8.504;2023-02-20T11:36:07;14.10;99.90
13436;DHT22;6790;49.520;8.504;2023-02-20T11:38:36;13.90;99.90
13436;DHT22;6790;49.520;8.504;2023-02-20T11:41:06;14.00;99.90
13436;DHT22;6790;49.520;8.504;2023-02-20T11:44:17;14.20;99.90
13436;DHT22;6790;49.520;8.504;2023-02-20T11:47:07;14.40;99.90
13436;DHT22;6790;49.520;8.504;2023-02-20T11:50:16;14.50;99.90
13436;DHT22;6790;49.520;8.504;2023-02-20T11:55:29;14.70;99.90
13436;DHT22;6790;49.520;8.504;2023-02-20T11:57:55;14.80;99.90
13436;DHT22;6790;49.520;8.504;2023-02-20T12:00:24;14.70;99.90
13436;DHT22;6790;49.520;8.504;2023-02-20T12:05:41;14.50;99.90
13436;DHT22;6790;49.520;8.504;2023-02-20T12:08:33;14.70;99.90
13436;DHT22;6790;49.520;8.504;2023-02-20T12:11:19;14.60;99.90
13436;DHT22;6790;49.520;8.504;2023-02-20T12:13:55;14.50;99.90
13436;DHT22;6790;49.520;8.504;2023-02-20T12:22:21;14.80;99.90
13436;DHT22;6790;49.520;8.504;2023-02-20T12:28:01;15.00;99.90
13436;DHT22;6790;49.520;8.504;2023-02-20T12:42:19;15.00;99.90
13436;DHT22;6790;49.520;8.504;2023-02-20T12:54:12;15.00;99.90
13436;DHT22;6790;49.520;8.504;2023-02-20T13:00:13;15.10;99.90
13436;DHT22;6790;49.520;8.504;2023-02-20T13:02:40;15.10;99.90
13436;DHT22;6790;49.520;8.504;2023-02-20T13:05:13;15.00;99.90
13436;DHT22;6790;49.520;8.504;2023-02-20T13:08:06;15.00;99.90
13436;DHT22;6790;49.520;8.504;2023-02-20T13:10:51;15.00;99.70
13436;DHT22;6790;49.520;8.504;2023-02-20T13:13:18;15.00;99.90
13436;DHT22;6790;49.520;8.504;2023-02-20T13:16:06;15.00;99.90
13436;DHT22;6790;49.520;8.504;2023-02-20T13:21:29;15.00;99.90
13436;DHT22;6790;49.520;8.504;2023-02-20T13:26:47;14.80;99.90
13436;DHT22;6790;49.520;8.504;2023-02-20T13:29:20;14.90;97.30
13436;DHT22;6790;49.520;8.504;2023-02-20T13:34:40;14.90;97.20
13436;DHT22;6790;49.520;8.504;2023-02-20T13:39:58;14.70;96.90
13436;DHT22;6790;49.520;8.504;2023-02-20T13:45:41;14.70;99.20
13436;DHT22;6790;49.520;8.504;2023-02-20T13:53:43;14.90;98.00
13436;DHT22;6790;49.520;8.504;2023-02-20T13:58:49;14.80;97.40
13436;DHT22;6790;49.520;8.504;2023-02-20T14:01:16;14.80;96.60
13436;DHT22;6790;49.520;8.504;2023-02-20T14:03:42;14.90;97.60
13436;DHT22;6790;49.520;8.504;2023-02-20T14:06:11;14.90;98.00
13436;DHT22;6790;49.520;8.504;2023-02-20T14:08:43;14.90;99.60
13436;DHT22;6790;49.520;8.504;2023-02-20T14:11:32;15.00;98.30
13436;DHT22;6790;49.520;8.504;2023-02-20T14:14:05;15.10;98.90
13436;DHT22;6790;49.520;8.504;2023-02-20T14:16:35;15.10;98.00
13436;DHT22;6790;49.520;8.504;2023-02-20T14:19:23;15.00;96.50
13436;DHT22;6790;49.520;8.504;2023-02-20T14:21:51;15.00;96.60
13436;DHT22;6790;49.520;8.504;2023-02-20T14:24:43;14.80;96.80
13436;DHT22;6790;49.520;8.504;2023-02-20T14:27:31;14.80;97.50
13436;DHT22;6790;49.520;8.504;2023-02-20T14:30:23;15.00;97.20
13436;DHT22;6790;49.520;8.504;2023-02-20T14:32:56;15.00;98.90
13436;DHT22;6790;49.520;8.504;2023-02-20T14:38:29;16.00;96.00
13436;DHT22;6790;49.520;8.504;2023-02-20T14:41:17;15.40;96.60
13436;DHT22;6790;49.520;8.504;2023-02-20T14:44:01;15.50;98.60
13436;DHT22;6790;49.520;8.504;2023-02-20T14:46:35;15.80;96.70
13436;DHT22;6790;49.520;8.504;2023-02-20T14:51:39;15.80;98.30
13436;DHT22;6790;49.520;8.504;2023-02-20T14:54:23;15.50;98.00
13436;DHT22;6790;49.520;8.504;2023-02-20T14:56:51;15.70;98.90
13436;DHT22;6790;49.520;8.504;2023-02-20T14:59:34;15.40;98.30
13436;DHT22;6790;49.520;8.504;2023-02-20T15:02:22;15.50;98.40
13436;DHT22;6790;49.520;8.504;2023-02-20T15:04:52;15.10;98.70
13436;DHT22;6790;49.520;8.504;2023-02-20T15:07:22;15.00;99.90
13436;DHT22;6790;49.520;8.504;2023-02-20T15:09:51;14.80;99.90
13436;DHT22;6790;49.520;8.504;2023-02-20T15:15:02;14.70;99.90
13436;DHT22;6790;49.520;8.504;2023-02-20T15:17:32;14.60;99.90
13436;DHT22;6790;49.520;8.504;2023-02-20T15:19:59;14.60;99.90
13436;DHT22;6790;49.520;8.504;2023-02-20T15:22:35;14.50;99.90
13436;DHT22;6790;49.520;8.504;2023-02-20T15:31:06;14.30;99.90
13436;DHT22;6790;49.520;8.504;2023-02-20T15:33:51;14.30;99.90
13436;DHT22;6790;49.520;8.504;2023-02-20T15:36:23;14.10;99.90
13436;DHT22;6790;49.520;8.504;2023-02-20T15:38:54;14.10;99.90
13436;DHT22;6790;49.520;8.504;2023-02-20T15:41:21;14.10;99.90
13436;DHT22;6790;49.520;8.504;2023-02-20T15:43:48;14.20;99.90
13436;DHT22;6790;49.520;8.504;2023-02-20T15:46:15;14.10;99.90
13436;DHT22;6790;49.520;8.504;2023-02-20T15:48:41;14.00;99.90
13436;DHT22;6790;49.520;8.504;2023-02-20T15:51:09;14.10;99.90
13436;DHT22;6790;49.520;8.504;2023-02-20T15:53:35;14.00;99.90
13436;DHT22;6790;49.520;8.504;2023-02-20T15:56:02;13.90;99.90
13436;DHT22;6790;49.520;8.504;2023-02-20T15:58:32;13.80;99.90
13436;DHT22;6790;49.520;8.504;2023-02-20T16:01:01;13.80;99.90
13436;DHT22;6790;49.520;8.504;2023-02-20T16:03:28;13.80;99.90
13436;DHT22;6790;49.520;8.504;2023-02-20T16:05:55;13.70;99.90
13436;DHT22;6790;49.520;8.504;2023-02-20T16:08:22;13.80;99.90
13436;DHT22;6790;49.520;8.504;2023-02-20T16:10:49;13.60;99.90
13436;DHT22;6790;49.520;8.504;2023-02-20T16:13:37;13.50;99.90
13436;DHT22;6790;49.520;8.504;2023-02-20T16:16:20;13.40;99.90
13436;DHT22;6790;49.520;8.504;2023-02-20T16:18:47;13.40;99.90
13436;DHT22;6790;49.520;8.504;2023-02-20T16:21:15;13.30;99.90
13436;DHT22;6790;49.520;8.504;2023-02-20T16:23:43;13.30;99.90
13436;DHT22;6790;49.520;8.504;2023-02-20T16:26:11;13.10;99.90
13436;DHT22;6790;49.520;8.504;2023-02-20T16:28:37;13.10;99.90
13436;DHT22;6790;49.520;8.504;2023-02-20T16:31:02;13.00;99.90
13436;DHT22;6790;49.520;8.504;2023-02-20T16:33:28;13.00;99.90
13436;DHT22;6790;49.520;8.504;2023-02-20T16:35:54;12.90;99.90
13436;DHT22;6790;49.520;8.504;2023-02-20T16:38:21;12.80;99.90
13436;DHT22;6790;49.520;8.504;2023-02-20T16:40:47;12.70;99.90
13436;DHT22;6790;49.520;8.504;2023-02-20T16:43:20;12.70;99.90
13436;DHT22;6790;49.520;8.504;2023-02-20T16:45:50;12.50;99.90
13436;DHT22;6790;49.520;8.504;2023-02-20T16:48:18;12.50;99.90
13436;DHT22;6790;49.520;8.504;2023-02-20T16:50:50;12.50;99.90
13436;DHT22;6790;49.520;8.504;2023-02-20T16:53:18;12.40;99.90
13436;DHT22;6790;49.520;8.504;2023-02-20T16:55:44;12.30;99.90
13436;DHT22;6790;49.520;8.504;2023-02-20T16:58:12;12.20;99.90
13436;DHT22;6790;49.520;8.504;2023-02-20T17:00:40;12.10;99.90
13436;DHT22;6790;49.520;8.504;2023-02-20T17:03:07;12.00;99.90
13436;DHT22;6790;49.520;8.504;2023-02-20T17:05:35;12.00;99.90
13436;DHT22;6790;49.520;8.504;2023-02-20T17:08:03;11.80;99.90
13436;DHT22;6790;49.520;8.504;2023-02-20T17:10:29;11.60;99.90
13436;DHT22;6790;49.520;8.504;2023-02-20T17:12:55;11.50;99.90
13436;DHT22;6790;49.520;8.504;2023-02-20T17:15:23;11.40;99.90
13436;DHT22;6790;49.520;8.504;2023-02-20T17:17:50;11.40;99.90
13436;DHT22;6790;49.520;8.504;2023-02-20T17:20:21;11.20;99.90
13436;DHT22;6790;49.520;8.504;2023-02-20T17:22:49;11.30;99.90
13436;DHT22;6790;49.520;8.504;2023-02-20T17:25:22;11.20;99.90
13436;DHT22;6790;49.520;8.504;2023-02-20T17:27:49;11.10;99.90
13436;DHT22;6790;49.520;8.504;2023-02-20T17:30:19;11.10;99.90
13436;DHT22;6790;49.520;8.504;2023-02-20T17:32:46;11.00;99.90
13436;DHT22;6790;49.520;8.504;2023-02-20T17:35:12;10.90;99.90
13436;DHT22;6790;49.520;8.504;2023-02-20T17:37:38;10.90;99.90
13436;DHT22;6790;49.520;8.504;2023-02-20T17:40:04;10.80;99.90
13436;DHT22;6790;49.520;8.504;2023-02-20T17:42:30;10.80;99.90
13436;DHT22;6790;49.520;8.504;2023-02-20T17:44:56;10.80;99.90
13436;DHT22;6790;49.520;8.504;2023-02-20T17:47:22;10.60;99.90
13436;DHT22;6790;49.520;8.504;2023-02-20T17:49:50;10.70;99.90
13436;DHT22;6790;49.520;8.504;2023-02-20T17:52:17;10.80;99.90
13436;DHT22;6790;49.520;8.504;2023-02-20T17:54:47;10.80;99.90
13436;DHT22;6790;49.520;8.504;2023-02-20T17:57:16;10.70;99.90
13436;DHT22;6790;49.520;8.504;2023-02-20T17:59:43;10.70;99.90
13436;DHT22;6790;49.520;8.504;2023-02-20T18:02:11;10.70;99.90
13436;DHT22;6790;49.520;8.504;2023-02-20T18:04:37;10.70;99.90
13436;DHT22;6790;49.520;8.504;2023-02-20T18:07:04;10.70;99.90
13436;DHT22;6790;49.520;8.504;2023-02-20T18:09:30;10.60;99.90
13436;DHT22;6790;49.520;8.504;2023-02-20T18:11:57;10.50;99.90
13436;DHT22;6790;49.520;8.504;2023-02-20T18:14:24;10.50;99.90
13436;DHT22;6790;49.520;8.504;2023-02-20T18:16:49;10.60;99.90
13436;DHT22;6790;49.520;8.504;2023-02-20T18:19:16;10.60;99.90
13436;DHT22;6790;49.520;8.504;2023-02-20T18:21:44;10.60;99.90
13436;DHT22;6790;49.520;8.504;2023-02-20T18:24:15;10.60;99.90